sensor_id;sensor_type;location;lat;lon;timestamp;P1;durP1;ratioP1;P2;durP2;ratioP2
77451;SDS011;66537;52.370;4.832;2024-03-08T00:00:18;41.75;;;16.52;;
77451;SDS011;66537;52.370;4.832;2024-03-08T00:02:44;43.00;;;17.30;;
77451;SDS011;66537;52.370;4.832;2024-03-08T00:05:13;46.15;;;16.92;;
77451;SDS011;66537;52.370;4.832;2024-03-08T00:07:39;40.80;;;16.50;;
77451;SDS011;66537;52.370;4.832;2024-03-08T00:10:06;40.58;;;17.35;;
77451;SDS011;66537;52.370;4.832;2024-03-08T00:15:09;42.75;;;15.73;;
77451;SDS011;66537;52.370;4.832;2024-03-08T00:17:41;39.55;;;15.40;;
77451;SDS011;66537;52.370;4.832;2024-03-08T00:20:07;37.78;;;14.52;;
77451;SDS011;66537;52.370;4.832;2024-03-08T00:22:37;35.65;;;14.77;;
77451;SDS011;66537;52.370;4.832;2024-03-08T00:25:03;38.17;;;15.70;;
77451;SDS011;66537;52.370;4.832;2024-03-08T00:27:29;37.25;;;15.30;;
77451;SDS011;66537;52.370;4.832;2024-03-08T00:29:57;35.42;;;14.73;;
77451;SDS011;66537;52.370;4.832;2024-03-08T00:32:23;34.92;;;15.32;;
77451;SDS011;66537;52.370;4.832;2024-03-08T00:34:49;36.72;;;15.68;;
77451;SDS011;66537;52.370;4.832;2024-03-08T00:37:19;37.42;;;16.02;;
77451;SDS011;66537;52.370;4.832;2024-03-08T00:39:46;37.92;;;16.50;;
77451;SDS011;66537;52.370;4.832;2024-03-08T00:42:12;36.58;;;14.85;;
77451;SDS011;66537;52.370;4.832;2024-03-08T00:44:38;38.17;;;15.55;;
77451;SDS011;66537;52.370;4.832;2024-03-08T00:47:05;38.95;;;14.82;;
77451;SDS011;66537;52.370;4.832;2024-03-08T00:49:30;35.53;;;14.32;;
77451;SDS011;66537;52.370;4.832;2024-03-08T00:51:55;35.60;;;15.87;;
77451;SDS011;66537;52.370;4.832;2024-03-08T00:54:21;34.77;;;14.57;;
77451;SDS011;66537;52.370;4.832;2024-03-08T00:56:46;38.87;;;15.13;;
77451;SDS011;66537;52.370;4.832;2024-03-08T00:59:11;35.97;;;15.77;;
77451;SDS011;66537;52.370;4.832;2024-03-08T01:01:39;34.00;;;15.18;;
77451;SDS011;66537;52.370;4.832;2024-03-08T01:04:05;36.47;;;15.45;;
77451;SDS011;66537;52.370;4.832;2024-03-08T01:06:30;37.40;;;15.20;;
77451;SDS011;66537;52.370;4.832;2024-03-08T01:08:55;33.38;;;13.73;;
77451;SDS011;66537;52.370;4.832;2024-03-08T01:11:21;32.90;;;14.30;;
77451;SDS011;66537;52.370;4.832;2024-03-08T01:13:46;34.90;;;14.73;;
77451;SDS011;66537;52.370;4.832;2024-03-08T01:16:13;34.72;;;15.75;;
77451;SDS011;66537;52.370;4.832;2024-03-08T01:18:38;32.97;;;14.38;;
77451;SDS011;66537;52.370;4.832;2024-03-08T01:21:03;32.80;;;14.65;;
77451;SDS011;66537;52.370;4.832;2024-03-08T01:23:29;38.08;;;16.15;;
77451;SDS011;66537;52.370;4.832;2024-03-08T01:25:55;33.20;;;14.02;;
77451;SDS011;66537;52.370;4.832;2024-03-08T01:28:25;35.97;;;14.70;;
77451;SDS011;66537;52.370;4.832;2024-03-08T01:30:51;37.90;;;14.98;;
77451;SDS011;66537;52.370;4.832;2024-03-08T01:33:21;38.10;;;14.77;;
77451;SDS011;66537;52.370;4.832;2024-03-08T01:35:51;35.95;;;15.98;;
77451;SDS011;66537;52.370;4.832;2024-03-08T01:38:17;35.70;;;15.73;;
77451;SDS011;66537;52.370;4.832;2024-03-08T01:40:43;35.38;;;14.82;;
77451;SDS011;66537;52.370;4.832;2024-03-08T01:45:46;38.60;;;15.50;;
77451;SDS011;66537;52.370;4.832;2024-03-08T01:48:12;39.75;;;15.65;;
77451;SDS011;66537;52.370;4.832;2024-03-08T01:50:39;36.72;;;14.93;;
77451;SDS011;66537;52.370;4.832;2024-03-08T01:53:05;36.70;;;14.75;;
77451;SDS011;66537;52.370;4.832;2024-03-08T01:55:32;36.25;;;15.90;;
77451;SDS011;66537;52.370;4.832;2024-03-08T01:58:00;34.95;;;15.32;;
77451;SDS011;66537;52.370;4.832;2024-03-08T02:00:28;40.80;;;16.98;;
77451;SDS011;66537;52.370;4.832;2024-03-08T02:02:54;40.20;;;15.10;;
77451;SDS011;66537;52.370;4.832;2024-03-08T02:05:20;36.78;;;15.07;;
77451;SDS011;66537;52.370;4.832;2024-03-08T02:07:46;36.58;;;15.05;;
77451;SDS011;66537;52.370;4.832;2024-03-08T02:10:12;41.72;;;17.85;;
77451;SDS011;66537;52.370;4.832;2024-03-08T02:12:38;37.95;;;14.98;;
77451;SDS011;66537;52.370;4.832;2024-03-08T02:15:04;44.30;;;17.20;;
77451;SDS011;66537;52.370;4.832;2024-03-08T02:17:31;34.70;;;15.73;;
77451;SDS011;66537;52.370;4.832;2024-03-08T02:19:58;42.47;;;17.75;;
77451;SDS011;66537;52.370;4.832;2024-03-08T02:22:26;36.75;;;15.32;;
77451;SDS011;66537;52.370;4.832;2024-03-08T02:24:52;34.75;;;16.50;;
77451;SDS011;66537;52.370;4.832;2024-03-08T02:27:23;36.83;;;15.88;;
77451;SDS011;66537;52.370;4.832;2024-03-08T02:29:49;38.92;;;16.45;;
77451;SDS011;66537;52.370;4.832;2024-03-08T02:32:15;38.05;;;16.67;;
77451;SDS011;66537;52.370;4.832;2024-03-08T02:34:40;42.22;;;17.38;;
77451;SDS011;66537;52.370;4.832;2024-03-08T02:37:06;41.33;;;16.73;;
77451;SDS011;66537;52.370;4.832;2024-03-08T02:39:31;37.90;;;16.23;;
77451;SDS011;66537;52.370;4.832;2024-03-08T02:41:57;40.30;;;16.25;;
77451;SDS011;66537;52.370;4.832;2024-03-08T02:44:22;39.03;;;16.55;;
77451;SDS011;66537;52.370;4.832;2024-03-08T02:46:48;40.78;;;16.50;;
77451;SDS011;66537;52.370;4.832;2024-03-08T02:49:15;41.15;;;17.80;;
77451;SDS011;66537;52.370;4.832;2024-03-08T02:51:41;41.80;;;17.83;;
77451;SDS011;66537;52.370;4.832;2024-03-08T02:54:06;38.80;;;17.52;;
77451;SDS011;66537;52.370;4.832;2024-03-08T02:56:33;37.80;;;16.20;;
77451;SDS011;66537;52.370;4.832;2024-03-08T02:59:00;42.72;;;17.85;;
77451;SDS011;66537;52.370;4.832;2024-03-08T03:01:25;38.53;;;17.90;;
77451;SDS011;66537;52.370;4.832;2024-03-08T03:03:51;38.72;;;17.85;;
77451;SDS011;66537;52.370;4.832;2024-03-08T03:06:16;38.73;;;17.10;;
77451;SDS011;66537;52.370;4.832;2024-03-08T03:08:45;33.75;;;15.63;;
77451;SDS011;66537;52.370;4.832;2024-03-08T03:11:10;37.97;;;17.10;;
77451;SDS011;66537;52.370;4.832;2024-03-08T03:13:36;42.25;;;18.25;;
77451;SDS011;66537;52.370;4.832;2024-03-08T03:16:01;40.53;;;17.57;;
77451;SDS011;66537;52.370;4.832;2024-03-08T03:18:28;36.40;;;16.17;;
77451;SDS011;66537;52.370;4.832;2024-03-08T03:20:53;38.33;;;16.75;;
77451;SDS011;66537;52.370;4.832;2024-03-08T03:23:19;38.20;;;17.30;;
77451;SDS011;66537;52.370;4.832;2024-03-08T03:25:45;39.35;;;16.15;;
77451;SDS011;66537;52.370;4.832;2024-03-08T03:28:11;40.45;;;17.27;;
77451;SDS011;66537;52.370;4.832;2024-03-08T03:30:39;38.97;;;15.93;;
77451;SDS011;66537;52.370;4.832;2024-03-08T03:33:05;34.25;;;16.75;;
77451;SDS011;66537;52.370;4.832;2024-03-08T03:35:33;38.10;;;16.83;;
77451;SDS011;66537;52.370;4.832;2024-03-08T03:37:59;47.15;;;18.55;;
77451;SDS011;66537;52.370;4.832;2024-03-08T03:40:33;38.55;;;16.90;;
77451;SDS011;66537;52.370;4.832;2024-03-08T03:42:59;42.80;;;17.70;;
77451;SDS011;66537;52.370;4.832;2024-03-08T03:45:25;37.05;;;16.50;;
77451;SDS011;66537;52.370;4.832;2024-03-08T03:47:51;45.38;;;18.88;;
77451;SDS011;66537;52.370;4.832;2024-03-08T03:50:17;42.17;;;17.15;;
77451;SDS011;66537;52.370;4.832;2024-03-08T03:52:47;39.10;;;16.25;;
77451;SDS011;66537;52.370;4.832;2024-03-08T03:55:13;39.75;;;17.60;;
77451;SDS011;66537;52.370;4.832;2024-03-08T03:57:39;37.22;;;17.42;;
77451;SDS011;66537;52.370;4.832;2024-03-08T04:00:06;40.30;;;17.55;;
77451;SDS011;66537;52.370;4.832;2024-03-08T04:02:35;36.42;;;16.58;;
77451;SDS011;66537;52.370;4.832;2024-03-08T04:05:01;38.00;;;17.95;;
77451;SDS011;66537;52.370;4.832;2024-03-08T04:07:27;39.40;;;16.60;;
77451;SDS011;66537;52.370;4.832;2024-03-08T04:09:52;43.93;;;18.53;;
77451;SDS011;66537;52.370;4.832;2024-03-08T04:12:18;41.60;;;17.07;;
77451;SDS011;66537;52.370;4.832;2024-03-08T04:14:43;39.42;;;17.35;;
77451;SDS011;66537;52.370;4.832;2024-03-08T04:17:09;39.10;;;16.92;;
77451;SDS011;66537;52.370;4.832;2024-03-08T04:19:35;36.67;;;17.10;;
77451;SDS011;66537;52.370;4.832;2024-03-08T04:22:00;39.35;;;18.10;;
77451;SDS011;66537;52.370;4.832;2024-03-08T04:24:27;41.50;;;16.95;;
77451;SDS011;66537;52.370;4.832;2024-03-08T04:26:52;41.67;;;18.90;;
77451;SDS011;66537;52.370;4.832;2024-03-08T04:29:18;39.50;;;16.90;;
77451;SDS011;66537;52.370;4.832;2024-03-08T04:31:43;36.85;;;17.23;;
77451;SDS011;66537;52.370;4.832;2024-03-08T04:34:09;35.35;;;17.30;;
77451;SDS011;66537;52.370;4.832;2024-03-08T04:36:35;38.80;;;17.33;;
77451;SDS011;66537;52.370;4.832;2024-03-08T04:39:00;40.80;;;17.73;;
77451;SDS011;66537;52.370;4.832;2024-03-08T04:41:25;41.13;;;17.60;;
77451;SDS011;66537;52.370;4.832;2024-03-08T04:43:51;38.88;;;16.83;;
77451;SDS011;66537;52.370;4.832;2024-03-08T04:46:17;37.45;;;17.42;;
77451;SDS011;66537;52.370;4.832;2024-03-08T04:48:42;38.30;;;16.80;;
77451;SDS011;66537;52.370;4.832;2024-03-08T04:51:08;39.38;;;17.55;;
77451;SDS011;66537;52.370;4.832;2024-03-08T04:53:34;38.75;;;17.70;;
77451;SDS011;66537;52.370;4.832;2024-03-08T04:55:59;41.03;;;17.02;;
77451;SDS011;66537;52.370;4.832;2024-03-08T04:58:25;36.17;;;16.87;;
77451;SDS011;66537;52.370;4.832;2024-03-08T05:00:50;33.50;;;15.57;;
77451;SDS011;66537;52.370;4.832;2024-03-08T05:03:16;38.50;;;17.77;;
77451;SDS011;66537;52.370;4.832;2024-03-08T05:05:41;38.63;;;18.80;;
77451;SDS011;66537;52.370;4.832;2024-03-08T05:08:06;41.70;;;19.23;;
77451;SDS011;66537;52.370;4.832;2024-03-08T05:10:32;44.30;;;19.65;;
77451;SDS011;66537;52.370;4.832;2024-03-08T05:12:57;43.23;;;19.07;;
77451;SDS011;66537;52.370;4.832;2024-03-08T05:15:23;42.17;;;16.92;;
77451;SDS011;66537;52.370;4.832;2024-03-08T05:17:48;38.40;;;17.13;;
77451;SDS011;66537;52.370;4.832;2024-03-08T05:20:13;45.03;;;17.27;;
77451;SDS011;66537;52.370;4.832;2024-03-08T05:22:39;41.05;;;18.65;;
77451;SDS011;66537;52.370;4.832;2024-03-08T05:25:05;41.53;;;18.38;;
77451;SDS011;66537;52.370;4.832;2024-03-08T05:27:33;41.75;;;17.83;;
77451;SDS011;66537;52.370;4.832;2024-03-08T05:29:59;43.67;;;18.45;;
77451;SDS011;66537;52.370;4.832;2024-03-08T05:32:24;37.47;;;17.10;;
77451;SDS011;66537;52.370;4.832;2024-03-08T05:34:50;40.53;;;18.33;;
77451;SDS011;66537;52.370;4.832;2024-03-08T05:37:15;40.05;;;16.75;;
77451;SDS011;66537;52.370;4.832;2024-03-08T05:39:41;42.78;;;18.08;;
77451;SDS011;66537;52.370;4.832;2024-03-08T05:42:06;43.05;;;18.42;;
77451;SDS011;66537;52.370;4.832;2024-03-08T05:44:33;41.05;;;18.23;;
77451;SDS011;66537;52.370;4.832;2024-03-08T05:46:59;43.03;;;17.60;;
77451;SDS011;66537;52.370;4.832;2024-03-08T05:49:24;38.60;;;17.70;;
77451;SDS011;66537;52.370;4.832;2024-03-08T05:51:50;41.83;;;18.42;;
77451;SDS011;66537;52.370;4.832;2024-03-08T05:54:16;42.63;;;19.45;;
77451;SDS011;66537;52.370;4.832;2024-03-08T05:56:42;42.08;;;19.15;;
77451;SDS011;66537;52.370;4.832;2024-03-08T05:59:08;40.72;;;18.52;;
77451;SDS011;66537;52.370;4.832;2024-03-08T06:01:34;42.53;;;18.60;;
77451;SDS011;66537;52.370;4.832;2024-03-08T06:04:01;40.40;;;18.73;;
77451;SDS011;66537;52.370;4.832;2024-03-08T06:06:27;40.22;;;20.25;;
77451;SDS011;66537;52.370;4.832;2024-03-08T06:08:53;43.40;;;18.37;;
77451;SDS011;66537;52.370;4.832;2024-03-08T06:11:21;40.10;;;18.52;;
77451;SDS011;66537;52.370;4.832;2024-03-08T06:13:46;41.65;;;19.15;;
77451;SDS011;66537;52.370;4.832;2024-03-08T06:16:13;45.88;;;18.30;;
77451;SDS011;66537;52.370;4.832;2024-03-08T06:18:38;40.05;;;18.13;;
77451;SDS011;66537;52.370;4.832;2024-03-08T06:21:06;45.25;;;20.30;;
77451;SDS011;66537;52.370;4.832;2024-03-08T06:23:32;41.72;;;18.48;;
77451;SDS011;66537;52.370;4.832;2024-03-08T06:25:58;41.28;;;20.17;;
77451;SDS011;66537;52.370;4.832;2024-03-08T06:28:23;43.85;;;19.33;;
77451;SDS011;66537;52.370;4.832;2024-03-08T06:30:49;38.45;;;17.10;;
77451;SDS011;66537;52.370;4.832;2024-03-08T06:33:16;43.83;;;19.88;;
77451;SDS011;66537;52.370;4.832;2024-03-08T06:35:42;43.00;;;18.27;;
77451;SDS011;66537;52.370;4.832;2024-03-08T06:38:07;43.30;;;19.73;;
77451;SDS011;66537;52.370;4.832;2024-03-08T06:40:33;36.60;;;17.33;;
77451;SDS011;66537;52.370;4.832;2024-03-08T06:42:59;39.63;;;18.15;;
77451;SDS011;66537;52.370;4.832;2024-03-08T06:45:24;41.03;;;18.27;;
77451;SDS011;66537;52.370;4.832;2024-03-08T06:47:50;40.60;;;18.77;;
77451;SDS011;66537;52.370;4.832;2024-03-08T06:50:16;44.60;;;18.70;;
77451;SDS011;66537;52.370;4.832;2024-03-08T06:52:42;39.28;;;17.95;;
77451;SDS011;66537;52.370;4.832;2024-03-08T06:55:07;39.67;;;18.13;;
77451;SDS011;66537;52.370;4.832;2024-03-08T06:57:38;38.55;;;17.27;;
77451;SDS011;66537;52.370;4.832;2024-03-08T07:00:05;41.05;;;19.25;;
77451;SDS011;66537;52.370;4.832;2024-03-08T07:02:34;44.08;;;18.88;;
77451;SDS011;66537;52.370;4.832;2024-03-08T07:05:00;41.50;;;18.65;;
77451;SDS011;66537;52.370;4.832;2024-03-08T07:07:26;44.53;;;19.50;;
77451;SDS011;66537;52.370;4.832;2024-03-08T07:09:51;42.83;;;19.00;;
77451;SDS011;66537;52.370;4.832;2024-03-08T07:12:17;41.93;;;19.37;;
77451;SDS011;66537;52.370;4.832;2024-03-08T07:14:42;43.57;;;18.30;;
77451;SDS011;66537;52.370;4.832;2024-03-08T07:17:10;42.42;;;19.63;;
77451;SDS011;66537;52.370;4.832;2024-03-08T07:19:36;42.28;;;18.38;;
77451;SDS011;66537;52.370;4.832;2024-03-08T07:22:03;43.00;;;19.48;;
77451;SDS011;66537;52.370;4.832;2024-03-08T07:24:29;41.63;;;18.05;;
77451;SDS011;66537;52.370;4.832;2024-03-08T07:27:20;40.50;;;18.30;;
77451;SDS011;66537;52.370;4.832;2024-03-08T07:29:45;38.03;;;16.83;;
77451;SDS011;66537;52.370;4.832;2024-03-08T07:32:11;39.78;;;18.38;;
77451;SDS011;66537;52.370;4.832;2024-03-08T07:34:46;40.65;;;19.83;;
77451;SDS011;66537;52.370;4.832;2024-03-08T07:37:18;44.47;;;18.10;;
77451;SDS011;66537;52.370;4.832;2024-03-08T07:39:44;40.00;;;19.40;;
77451;SDS011;66537;52.370;4.832;2024-03-08T07:42:09;40.83;;;18.25;;
77451;SDS011;66537;52.370;4.832;2024-03-08T07:44:38;42.08;;;19.13;;
77451;SDS011;66537;52.370;4.832;2024-03-08T07:47:03;41.13;;;19.00;;
77451;SDS011;66537;52.370;4.832;2024-03-08T07:49:29;38.53;;;17.73;;
77451;SDS011;66537;52.370;4.832;2024-03-08T07:51:55;37.22;;;17.90;;
77451;SDS011;66537;52.370;4.832;2024-03-08T07:54:24;41.70;;;19.13;;
77451;SDS011;66537;52.370;4.832;2024-03-08T07:56:51;38.90;;;18.73;;
77451;SDS011;66537;52.370;4.832;2024-03-08T07:59:17;39.50;;;19.35;;
77451;SDS011;66537;52.370;4.832;2024-03-08T08:01:43;38.20;;;18.45;;
77451;SDS011;66537;52.370;4.832;2024-03-08T08:04:09;38.30;;;17.88;;
77451;SDS011;66537;52.370;4.832;2024-03-08T08:06:37;39.33;;;18.65;;
77451;SDS011;66537;52.370;4.832;2024-03-08T08:09:08;41.33;;;18.65;;
77451;SDS011;66537;52.370;4.832;2024-03-08T08:11:40;42.35;;;18.42;;
77451;SDS011;66537;52.370;4.832;2024-03-08T08:14:10;41.55;;;17.88;;
77451;SDS011;66537;52.370;4.832;2024-03-08T08:16:35;38.80;;;18.05;;
77451;SDS011;66537;52.370;4.832;2024-03-08T08:19:09;40.50;;;18.02;;
77451;SDS011;66537;52.370;4.832;2024-03-08T08:21:34;36.42;;;17.88;;
77451;SDS011;66537;52.370;4.832;2024-03-08T08:24:01;37.67;;;17.98;;
77451;SDS011;66537;52.370;4.832;2024-03-08T08:26:30;37.60;;;18.05;;
77451;SDS011;66537;52.370;4.832;2024-03-08T08:28:55;32.08;;;17.30;;
77451;SDS011;66537;52.370;4.832;2024-03-08T08:31:21;38.65;;;18.83;;
77451;SDS011;66537;52.370;4.832;2024-03-08T08:33:46;36.67;;;18.10;;
77451;SDS011;66537;52.370;4.832;2024-03-08T08:36:13;37.80;;;17.33;;
77451;SDS011;66537;52.370;4.832;2024-03-08T08:38:39;33.72;;;17.08;;
77451;SDS011;66537;52.370;4.832;2024-03-08T08:41:04;31.08;;;16.27;;
77451;SDS011;66537;52.370;4.832;2024-03-08T08:43:31;32.72;;;15.85;;
77451;SDS011;66537;52.370;4.832;2024-03-08T08:45:58;35.92;;;18.15;;
77451;SDS011;66537;52.370;4.832;2024-03-08T08:48:23;34.35;;;17.38;;
77451;SDS011;66537;52.370;4.832;2024-03-08T08:50:49;34.95;;;18.27;;
77451;SDS011;66537;52.370;4.832;2024-03-08T08:53:17;34.28;;;17.88;;
77451;SDS011;66537;52.370;4.832;2024-03-08T08:55:43;33.60;;;18.13;;
77451;SDS011;66537;52.370;4.832;2024-03-08T08:58:10;32.40;;;17.65;;
77451;SDS011;66537;52.370;4.832;2024-03-08T09:00:36;35.53;;;18.23;;
77451;SDS011;66537;52.370;4.832;2024-03-08T09:03:01;39.65;;;19.25;;
77451;SDS011;66537;52.370;4.832;2024-03-08T09:05:27;35.45;;;18.70;;
77451;SDS011;66537;52.370;4.832;2024-03-08T09:07:52;35.72;;;18.52;;
77451;SDS011;66537;52.370;4.832;2024-03-08T09:10:18;33.60;;;18.00;;
77451;SDS011;66537;52.370;4.832;2024-03-08T09:12:43;35.15;;;19.08;;
77451;SDS011;66537;52.370;4.832;2024-03-08T09:15:09;37.45;;;18.00;;
77451;SDS011;66537;52.370;4.832;2024-03-08T09:17:36;33.85;;;17.73;;
77451;SDS011;66537;52.370;4.832;2024-03-08T09:20:04;33.17;;;17.65;;
77451;SDS011;66537;52.370;4.832;2024-03-08T09:22:39;34.35;;;18.77;;
77451;SDS011;66537;52.370;4.832;2024-03-08T09:25:05;37.50;;;19.60;;
77451;SDS011;66537;52.370;4.832;2024-03-08T09:27:32;36.17;;;17.70;;
77451;SDS011;66537;52.370;4.832;2024-03-08T09:29:58;34.00;;;18.52;;
77451;SDS011;66537;52.370;4.832;2024-03-08T09:32:24;34.60;;;18.03;;
77451;SDS011;66537;52.370;4.832;2024-03-08T09:34:49;39.67;;;18.77;;
77451;SDS011;66537;52.370;4.832;2024-03-08T09:37:15;37.65;;;19.42;;
77451;SDS011;66537;52.370;4.832;2024-03-08T09:39:40;36.40;;;19.27;;
77451;SDS011;66537;52.370;4.832;2024-03-08T09:42:06;39.80;;;19.17;;
77451;SDS011;66537;52.370;4.832;2024-03-08T09:44:31;41.17;;;19.15;;
77451;SDS011;66537;52.370;4.832;2024-03-08T09:47:00;37.00;;;18.75;;
77451;SDS011;66537;52.370;4.832;2024-03-08T09:49:27;35.65;;;19.90;;
77451;SDS011;66537;52.370;4.832;2024-03-08T09:51:53;36.63;;;19.20;;
77451;SDS011;66537;52.370;4.832;2024-03-08T09:54:30;35.15;;;18.65;;
77451;SDS011;66537;52.370;4.832;2024-03-08T09:56:55;39.90;;;19.27;;
77451;SDS011;66537;52.370;4.832;2024-03-08T09:59:21;39.72;;;19.45;;
77451;SDS011;66537;52.370;4.832;2024-03-08T10:02:06;36.42;;;19.05;;
77451;SDS011;66537;52.370;4.832;2024-03-08T10:04:39;39.80;;;20.40;;
77451;SDS011;66537;52.370;4.832;2024-03-08T10:07:07;34.55;;;18.30;;
77451;SDS011;66537;52.370;4.832;2024-03-08T10:09:32;37.92;;;19.48;;
77451;SDS011;66537;52.370;4.832;2024-03-08T10:11:58;34.43;;;18.17;;
77451;SDS011;66537;52.370;4.832;2024-03-08T10:14:24;36.47;;;19.77;;
77451;SDS011;66537;52.370;4.832;2024-03-08T10:16:51;34.33;;;18.23;;
77451;SDS011;66537;52.370;4.832;2024-03-08T10:19:17;37.45;;;19.42;;
77451;SDS011;66537;52.370;4.832;2024-03-08T10:21:52;33.30;;;18.60;;
77451;SDS011;66537;52.370;4.832;2024-03-08T10:24:18;37.03;;;19.42;;
77451;SDS011;66537;52.370;4.832;2024-03-08T10:26:44;35.10;;;19.80;;
77451;SDS011;66537;52.370;4.832;2024-03-08T10:29:09;41.33;;;20.27;;
77451;SDS011;66537;52.370;4.832;2024-03-08T10:31:35;35.70;;;19.57;;
77451;SDS011;66537;52.370;4.832;2024-03-08T10:34:04;38.40;;;19.30;;
77451;SDS011;66537;52.370;4.832;2024-03-08T10:36:30;38.35;;;19.92;;
77451;SDS011;66537;52.370;4.832;2024-03-08T10:38:57;35.88;;;18.88;;
77451;SDS011;66537;52.370;4.832;2024-03-08T10:41:26;37.47;;;19.02;;
77451;SDS011;66537;52.370;4.832;2024-03-08T10:46:51;33.08;;;17.65;;
77451;SDS011;66537;52.370;4.832;2024-03-08T10:49:24;36.67;;;19.08;;
77451;SDS011;66537;52.370;4.832;2024-03-08T10:51:54;37.95;;;19.17;;
77451;SDS011;66537;52.370;4.832;2024-03-08T10:54:22;35.63;;;18.67;;
77451;SDS011;66537;52.370;4.832;2024-03-08T10:56:50;38.10;;;19.05;;
77451;SDS011;66537;52.370;4.832;2024-03-08T10:59:16;33.03;;;18.60;;
77451;SDS011;66537;52.370;4.832;2024-03-08T11:01:43;33.10;;;18.27;;
77451;SDS011;66537;52.370;4.832;2024-03-08T11:04:09;37.38;;;18.75;;
77451;SDS011;66537;52.370;4.832;2024-03-08T11:09:03;38.13;;;19.15;;
77451;SDS011;66537;52.370;4.832;2024-03-08T11:11:38;37.92;;;18.38;;
77451;SDS011;66537;52.370;4.832;2024-03-08T11:14:07;36.53;;;19.42;;
77451;SDS011;66537;52.370;4.832;2024-03-08T11:17:14;36.65;;;18.38;;
77451;SDS011;66537;52.370;4.832;2024-03-08T11:19:45;33.22;;;18.10;;
77451;SDS011;66537;52.370;4.832;2024-03-08T11:22:20;36.80;;;18.83;;
77451;SDS011;66537;52.370;4.832;2024-03-08T11:24:49;38.25;;;18.63;;
77451;SDS011;66537;52.370;4.832;2024-03-08T11:27:15;36.00;;;18.38;;
77451;SDS011;66537;52.370;4.832;2024-03-08T11:29:41;40.80;;;18.70;;
77451;SDS011;66537;52.370;4.832;2024-03-08T11:34:43;34.22;;;17.45;;
77451;SDS011;66537;52.370;4.832;2024-03-08T11:37:11;35.17;;;17.83;;
77451;SDS011;66537;52.370;4.832;2024-03-08T11:39:47;38.00;;;18.58;;
77451;SDS011;66537;52.370;4.832;2024-03-08T11:42:17;38.28;;;18.95;;
77451;SDS011;66537;52.370;4.832;2024-03-08T11:44:44;33.88;;;17.90;;
77451;SDS011;66537;52.370;4.832;2024-03-08T11:47:13;35.20;;;18.13;;
77451;SDS011;66537;52.370;4.832;2024-03-08T11:49:39;38.28;;;17.90;;
77451;SDS011;66537;52.370;4.832;2024-03-08T11:52:10;34.20;;;17.98;;
77451;SDS011;66537;52.370;4.832;2024-03-08T11:54:38;33.75;;;17.27;;
77451;SDS011;66537;52.370;4.832;2024-03-08T11:57:04;36.03;;;18.42;;
77451;SDS011;66537;52.370;4.832;2024-03-08T11:59:29;34.53;;;17.90;;
77451;SDS011;66537;52.370;4.832;2024-03-08T12:02:05;35.47;;;18.10;;
77451;SDS011;66537;52.370;4.832;2024-03-08T12:04:31;37.08;;;18.15;;
77451;SDS011;66537;52.370;4.832;2024-03-08T12:07:01;33.83;;;18.52;;
77451;SDS011;66537;52.370;4.832;2024-03-08T12:09:36;33.50;;;16.75;;
77451;SDS011;66537;52.370;4.832;2024-03-08T12:12:02;37.80;;;17.98;;
77451;SDS011;66537;52.370;4.832;2024-03-08T12:14:32;32.53;;;16.75;;
77451;SDS011;66537;52.370;4.832;2024-03-08T12:16:58;33.33;;;17.20;;
77451;SDS011;66537;52.370;4.832;2024-03-08T12:19:26;34.83;;;16.90;;
77451;SDS011;66537;52.370;4.832;2024-03-08T12:21:53;33.30;;;17.75;;
77451;SDS011;66537;52.370;4.832;2024-03-08T12:24:19;40.13;;;18.85;;
77451;SDS011;66537;52.370;4.832;2024-03-08T12:26:45;36.63;;;18.00;;
77451;SDS011;66537;52.370;4.832;2024-03-08T12:29:24;35.00;;;17.35;;
77451;SDS011;66537;52.370;4.832;2024-03-08T12:31:52;34.75;;;18.23;;
77451;SDS011;66537;52.370;4.832;2024-03-08T12:34:23;33.20;;;17.85;;
77451;SDS011;66537;52.370;4.832;2024-03-08T12:36:49;34.45;;;17.90;;
77451;SDS011;66537;52.370;4.832;2024-03-08T12:39:18;35.90;;;17.90;;
77451;SDS011;66537;52.370;4.832;2024-03-08T12:41:48;35.97;;;18.48;;
77451;SDS011;66537;52.370;4.832;2024-03-08T12:44:19;37.78;;;18.40;;
77451;SDS011;66537;52.370;4.832;2024-03-08T12:46:46;38.53;;;18.05;;
77451;SDS011;66537;52.370;4.832;2024-03-08T12:49:13;36.00;;;18.02;;
77451;SDS011;66537;52.370;4.832;2024-03-08T12:51:42;40.50;;;18.27;;
77451;SDS011;66537;52.370;4.832;2024-03-08T12:54:08;37.10;;;17.88;;
77451;SDS011;66537;52.370;4.832;2024-03-08T12:56:34;35.83;;;17.48;;
77451;SDS011;66537;52.370;4.832;2024-03-08T12:59:02;33.78;;;17.50;;
77451;SDS011;66537;52.370;4.832;2024-03-08T13:01:31;35.97;;;17.90;;
77451;SDS011;66537;52.370;4.832;2024-03-08T13:03:57;34.50;;;17.65;;
77451;SDS011;66537;52.370;4.832;2024-03-08T13:08:53;31.15;;;15.55;;
77451;SDS011;66537;52.370;4.832;2024-03-08T13:11:20;39.00;;;16.90;;
77451;SDS011;66537;52.370;4.832;2024-03-08T13:13:46;30.55;;;15.40;;
77451;SDS011;66537;52.370;4.832;2024-03-08T13:16:12;33.40;;;16.02;;
77451;SDS011;66537;52.370;4.832;2024-03-08T13:18:42;31.20;;;15.82;;
77451;SDS011;66537;52.370;4.832;2024-03-08T13:21:07;29.98;;;13.20;;
77451;SDS011;66537;52.370;4.832;2024-03-08T13:23:34;27.77;;;13.68;;
77451;SDS011;66537;52.370;4.832;2024-03-08T13:26:04;26.95;;;12.93;;
77451;SDS011;66537;52.370;4.832;2024-03-08T13:28:30;25.50;;;12.65;;
77451;SDS011;66537;52.370;4.832;2024-03-08T13:31:01;27.42;;;12.57;;
77451;SDS011;66537;52.370;4.832;2024-03-08T13:33:28;33.38;;;13.95;;
77451;SDS011;66537;52.370;4.832;2024-03-08T13:35:53;25.90;;;13.23;;
77451;SDS011;66537;52.370;4.832;2024-03-08T13:38:18;26.73;;;12.57;;
77451;SDS011;66537;52.370;4.832;2024-03-08T13:40:46;28.88;;;13.63;;
77451;SDS011;66537;52.370;4.832;2024-03-08T13:43:14;28.63;;;14.05;;
77451;SDS011;66537;52.370;4.832;2024-03-08T13:45:39;26.43;;;13.43;;
77451;SDS011;66537;52.370;4.832;2024-03-08T13:48:06;24.35;;;12.43;;
77451;SDS011;66537;52.370;4.832;2024-03-08T13:50:31;28.70;;;14.38;;
77451;SDS011;66537;52.370;4.832;2024-03-08T13:52:57;26.85;;;14.20;;
77451;SDS011;66537;52.370;4.832;2024-03-08T13:55:23;26.00;;;13.70;;
77451;SDS011;66537;52.370;4.832;2024-03-08T13:57:50;24.70;;;12.77;;
77451;SDS011;66537;52.370;4.832;2024-03-08T14:00:18;27.13;;;14.60;;
77451;SDS011;66537;52.370;4.832;2024-03-08T14:02:47;27.98;;;12.95;;
77451;SDS011;66537;52.370;4.832;2024-03-08T14:05:13;25.15;;;13.23;;
77451;SDS011;66537;52.370;4.832;2024-03-08T14:07:41;32.55;;;14.60;;
77451;SDS011;66537;52.370;4.832;2024-03-08T14:10:06;29.15;;;14.02;;
77451;SDS011;66537;52.370;4.832;2024-03-08T14:12:32;30.25;;;14.05;;
77451;SDS011;66537;52.370;4.832;2024-03-08T14:14:58;29.95;;;15.05;;
77451;SDS011;66537;52.370;4.832;2024-03-08T14:17:24;28.50;;;13.73;;
77451;SDS011;66537;52.370;4.832;2024-03-08T14:19:52;28.67;;;14.18;;
77451;SDS011;66537;52.370;4.832;2024-03-08T14:22:17;28.75;;;14.05;;
77451;SDS011;66537;52.370;4.832;2024-03-08T14:24:43;29.43;;;14.33;;
77451;SDS011;66537;52.370;4.832;2024-03-08T14:27:09;28.63;;;13.82;;
77451;SDS011;66537;52.370;4.832;2024-03-08T14:29:37;29.08;;;14.60;;
77451;SDS011;66537;52.370;4.832;2024-03-08T14:32:03;26.75;;;13.57;;
77451;SDS011;66537;52.370;4.832;2024-03-08T14:34:33;28.70;;;14.15;;